GLO1036 SBSP-SBRJ
Flight info
| Callsign | GLO1036 |
|---|---|
| Flight time | 0h 40m |
| Altitude | 27000 |
| Route | NIBRU UZ171 KEVUN |
| Aircraft | B738/M-SDE2E3FGHIRWXY/LB1 |
Departure
| Time | 2026-05-06 02:28 |
|---|---|
| Airport | Congonhas–Deputado Freitas Nobre Airport (SBSP) |
Arrival
| Time | 2026-05-06 03:08 |
|---|---|
| Airport | Santos Dumont Airport (SBRJ) |
| Time | Latitude | Longitude | Altitude | Speed | Heading |
|---|---|---|---|---|---|
| 2026-05-06 02:13 | -23.62657 | -46.65863 | 2600 ft | 0 kts | 237° |
| 2026-05-06 02:20 | -23.62648 | -46.65849 | 2600 ft | 4 kts | 223° |
| 2026-05-06 02:20 | -23.62627 | -46.65837 | 2600 ft | 4 kts | 174° |
| 2026-05-06 02:21 | -23.62607 | -46.65844 | 2600 ft | 1 kts | 147° |
| 2026-05-06 02:21 | -23.62604 | -46.65846 | 2600 ft | 0 kts | 147° |
| 2026-05-06 02:23 | -23.62608 | -46.65842 | 2600 ft | 2 kts | 137° |
| 2026-05-06 02:23 | -23.62622 | -46.65805 | 2600 ft | 7 kts | 111° |
| 2026-05-06 02:23 | -23.62657 | -46.65762 | 2601 ft | 9 kts | 143° |
| 2026-05-06 02:23 | -23.62715 | -46.65719 | 2602 ft | 11 kts | 147° |
| 2026-05-06 02:24 | -23.62786 | -46.65670 | 2602 ft | 12 kts | 148° |
| 2026-05-06 02:24 | -23.62858 | -46.65622 | 2602 ft | 12 kts | 148° |
| 2026-05-06 02:24 | -23.62926 | -46.65575 | 2602 ft | 12 kts | 146° |
| 2026-05-06 02:24 | -23.62994 | -46.65529 | 2603 ft | 11 kts | 148° |
| 2026-05-06 02:25 | -23.63069 | -46.65506 | 2601 ft | 11 kts | 166° |
| 2026-05-06 02:25 | -23.63136 | -46.65465 | 2601 ft | 11 kts | 146° |
| 2026-05-06 02:25 | -23.63200 | -46.65421 | 2601 ft | 11 kts | 148° |
| 2026-05-06 02:25 | -23.63262 | -46.65379 | 2601 ft | 10 kts | 148° |
| 2026-05-06 02:26 | -23.63322 | -46.65337 | 2601 ft | 10 kts | 147° |
| 2026-05-06 02:26 | -23.63380 | -46.65296 | 2601 ft | 10 kts | 147° |
| 2026-05-06 02:26 | -23.63437 | -46.65256 | 2601 ft | 10 kts | 147° |
| 2026-05-06 02:26 | -23.63495 | -46.65213 | 2599 ft | 10 kts | 134° |
| 2026-05-06 02:27 | -23.63484 | -46.65149 | 2591 ft | 10 kts | 37° |
| 2026-05-06 02:27 | -23.63438 | -46.65117 | 2599 ft | 1 kts | 1° |
| 2026-05-06 02:27 | -23.63433 | -46.65119 | 2600 ft | 1 kts | 345° |
| 2026-05-06 02:27 | -23.63417 | -46.65127 | 2601 ft | 7 kts | 333° |
| 2026-05-06 02:28 | -23.63305 | -46.65204 | 2608 ft | 49 kts | 328° |
| 2026-05-06 02:28 | -23.62794 | -46.65559 | 2607 ft | 126 kts | 327° |
| 2026-05-06 02:28 | -23.61905 | -46.66181 | 2855 ft | 167 kts | 328° |
| 2026-05-06 02:28 | -23.60906 | -46.66895 | 3739 ft | 173 kts | 331° |
| 2026-05-06 02:29 | -23.59769 | -46.67184 | 4482 ft | 177 kts | 15° |
| 2026-05-06 02:29 | -23.58702 | -46.66386 | 4837 ft | 205 kts | 59° |
| 2026-05-06 02:29 | -23.58359 | -46.64852 | 5294 ft | 217 kts | 95° |
| 2026-05-06 02:29 | -23.58836 | -46.63254 | 5446 ft | 226 kts | 116° |
| 2026-05-06 02:30 | -23.59558 | -46.61721 | 5456 ft | 228 kts | 116° |
| 2026-05-06 02:30 | -23.60259 | -46.60169 | 5471 ft | 233 kts | 107° |
| 2026-05-06 02:30 | -23.60698 | -46.58339 | 5496 ft | 262 kts | 103° |
| 2026-05-06 02:30 | -23.61165 | -46.56402 | 5481 ft | 264 kts | 109° |
| 2026-05-06 02:31 | -23.62152 | -46.54707 | 5556 ft | 272 kts | 134° |
| 2026-05-06 02:31 | -23.63530 | -46.53266 | 6362 ft | 275 kts | 135° |
| 2026-05-06 02:31 | -23.64906 | -46.51830 | 7361 ft | 274 kts | 135° |
| 2026-05-06 02:31 | -23.66288 | -46.50378 | 8232 ft | 279 kts | 135° |
| 2026-05-06 02:32 | -23.67698 | -46.48891 | 9121 ft | 283 kts | 135° |
| 2026-05-06 02:32 | -23.69121 | -46.47384 | 10021 ft | 288 kts | 135° |
| 2026-05-06 02:32 | -23.70504 | -46.45762 | 10675 ft | 300 kts | 123° |
| 2026-05-06 02:32 | -23.71230 | -46.43547 | 10875 ft | 327 kts | 94° |
| 2026-05-06 02:33 | -23.71023 | -46.41020 | 11383 ft | 340 kts | 82° |
| 2026-05-06 02:33 | -23.70767 | -46.39285 | 11864 ft | 344 kts | 81° |
| 2026-05-06 02:33 | -23.69833 | -46.33215 | 13615 ft | 354 kts | 82° |
| 2026-05-06 02:34 | -23.69433 | -46.30534 | 14275 ft | 360 kts | 82° |
| 2026-05-06 02:34 | -23.69036 | -46.27815 | 14914 ft | 365 kts | 82° |
| 2026-05-06 02:34 | -23.68640 | -46.25064 | 15555 ft | 369 kts | 83° |
| 2026-05-06 02:34 | -23.68241 | -46.22283 | 16184 ft | 374 kts | 82° |
| 2026-05-06 02:35 | -23.67837 | -46.19463 | 16787 ft | 379 kts | 82° |
| 2026-05-06 02:35 | -23.67429 | -46.16611 | 17401 ft | 383 kts | 82° |
| 2026-05-06 02:35 | -23.67014 | -46.13726 | 18035 ft | 387 kts | 82° |
| 2026-05-06 02:35 | -23.66595 | -46.10809 | 18598 ft | 391 kts | 82° |
| 2026-05-06 02:36 | -23.66172 | -46.07864 | 19111 ft | 395 kts | 82° |
| 2026-05-06 02:36 | -23.65744 | -46.04883 | 19659 ft | 398 kts | 82° |
| 2026-05-06 02:36 | -23.65313 | -46.01886 | 20188 ft | 402 kts | 82° |
| 2026-05-06 02:36 | -23.64877 | -45.98855 | 20717 ft | 405 kts | 82° |
| 2026-05-06 02:37 | -23.64438 | -45.95810 | 21264 ft | 409 kts | 82° |
| 2026-05-06 02:37 | -23.63992 | -45.92729 | 21795 ft | 413 kts | 82° |
| 2026-05-06 02:37 | -23.63544 | -45.89625 | 22325 ft | 416 kts | 82° |
| 2026-05-06 02:37 | -23.63090 | -45.86495 | 22844 ft | 420 kts | 82° |
| 2026-05-06 02:38 | -23.62632 | -45.83338 | 23350 ft | 423 kts | 82° |
| 2026-05-06 02:38 | -23.62169 | -45.80150 | 23833 ft | 427 kts | 82° |
| 2026-05-06 02:38 | -23.61702 | -45.76938 | 24252 ft | 431 kts | 82° |
| 2026-05-06 02:38 | -23.61232 | -45.73706 | 24669 ft | 434 kts | 82° |
| 2026-05-06 02:39 | -23.60756 | -45.70443 | 25093 ft | 437 kts | 82° |
| 2026-05-06 02:39 | -23.60276 | -45.67166 | 25566 ft | 438 kts | 82° |
| 2026-05-06 02:39 | -23.59798 | -45.63897 | 26142 ft | 436 kts | 83° |
| 2026-05-06 02:39 | -23.59319 | -45.60632 | 26727 ft | 435 kts | 83° |
| 2026-05-06 02:40 | -23.58840 | -45.57362 | 27177 ft | 437 kts | 83° |
| 2026-05-06 02:40 | -23.58359 | -45.54086 | 27178 ft | 437 kts | 83° |
| 2026-05-06 02:40 | -23.57880 | -45.50829 | 27189 ft | 435 kts | 83° |
| 2026-05-06 02:40 | -23.57399 | -45.47569 | 27205 ft | 436 kts | 83° |
| 2026-05-06 02:41 | -23.56846 | -45.44318 | 27205 ft | 437 kts | 80° |
| 2026-05-06 02:41 | -23.56179 | -45.41082 | 27210 ft | 438 kts | 78° |
| 2026-05-06 02:41 | -23.55468 | -45.37850 | 27220 ft | 439 kts | 78° |
| 2026-05-06 02:41 | -23.54749 | -45.34616 | 27213 ft | 439 kts | 78° |
| 2026-05-06 02:42 | -23.54037 | -45.31382 | 27196 ft | 438 kts | 78° |
| 2026-05-06 02:42 | -23.53336 | -45.28152 | 27215 ft | 438 kts | 78° |
| 2026-05-06 02:42 | -23.52645 | -45.24927 | 27205 ft | 438 kts | 79° |
| 2026-05-06 02:42 | -23.51955 | -45.21691 | 27213 ft | 437 kts | 79° |
| 2026-05-06 02:43 | -23.51270 | -45.18470 | 27206 ft | 437 kts | 79° |
| 2026-05-06 02:43 | -23.50584 | -45.15245 | 27190 ft | 436 kts | 79° |
| 2026-05-06 02:43 | -23.49912 | -45.12095 | 27182 ft | 428 kts | 78° |
| 2026-05-06 02:43 | -23.49243 | -45.08963 | 27173 ft | 419 kts | 79° |
| 2026-05-06 02:44 | -23.48593 | -45.05921 | 26944 ft | 410 kts | 78° |
| 2026-05-06 02:44 | -23.47946 | -45.02892 | 26433 ft | 410 kts | 78° |
| 2026-05-06 02:44 | -23.47300 | -44.99870 | 25968 ft | 409 kts | 78° |
| 2026-05-06 02:44 | -23.46656 | -44.96864 | 25497 ft | 407 kts | 78° |
| 2026-05-06 02:45 | -23.46012 | -44.93875 | 25047 ft | 406 kts | 78° |
| 2026-05-06 02:45 | -23.45347 | -44.90854 | 24496 ft | 406 kts | 77° |
| 2026-05-06 02:45 | -23.44688 | -44.87890 | 23890 ft | 409 kts | 77° |
| 2026-05-06 02:45 | -23.44018 | -44.84884 | 23328 ft | 408 kts | 77° |
| 2026-05-06 02:46 | -23.43374 | -44.82000 | 22873 ft | 404 kts | 77° |
| 2026-05-06 02:46 | -23.42714 | -44.79040 | 22427 ft | 400 kts | 77° |
| 2026-05-06 02:46 | -23.42061 | -44.76112 | 21984 ft | 396 kts | 76° |
| 2026-05-06 02:46 | -23.41426 | -44.73259 | 21562 ft | 392 kts | 76° |
| 2026-05-06 02:47 | -23.40787 | -44.70394 | 21143 ft | 388 kts | 76° |
| 2026-05-06 02:47 | -23.40154 | -44.67556 | 20709 ft | 384 kts | 76° |
| 2026-05-06 02:47 | -23.39546 | -44.64835 | 20320 ft | 381 kts | 76° |
| 2026-05-06 02:47 | -23.38924 | -44.62047 | 19918 ft | 378 kts | 76° |
| 2026-05-06 02:48 | -23.38304 | -44.59277 | 19506 ft | 374 kts | 75° |
| 2026-05-06 02:48 | -23.37692 | -44.56541 | 19134 ft | 370 kts | 75° |
| 2026-05-06 02:48 | -23.37092 | -44.53865 | 18736 ft | 368 kts | 75° |
| 2026-05-06 02:48 | -23.36488 | -44.51171 | 18257 ft | 367 kts | 75° |
| 2026-05-06 02:49 | -23.36120 | -44.49531 | 17993 ft | 365 kts | 75° |
| 2026-05-06 02:49 | -23.35756 | -44.47909 | 17732 ft | 362 kts | 75° |
| 2026-05-06 02:49 | -23.35626 | -44.47330 | 17647 ft | 362 kts | 75° |
| 2026-05-06 02:49 | -23.35031 | -44.44681 | 17236 ft | 358 kts | 75° |
| 2026-05-06 02:50 | -23.34425 | -44.42067 | 16834 ft | 354 kts | 72° |
| 2026-05-06 02:50 | -23.33551 | -44.39596 | 16545 ft | 347 kts | 65° |
| 2026-05-06 02:50 | -23.32522 | -44.37235 | 16151 ft | 344 kts | 64° |
| 2026-05-06 02:50 | -23.31463 | -44.34911 | 15778 ft | 341 kts | 64° |
| 2026-05-06 02:51 | -23.30417 | -44.32602 | 15386 ft | 339 kts | 64° |
| 2026-05-06 02:51 | -23.29392 | -44.30300 | 15007 ft | 337 kts | 65° |
| 2026-05-06 02:51 | -23.28386 | -44.28009 | 14623 ft | 335 kts | 66° |
| 2026-05-06 02:51 | -23.27389 | -44.25716 | 14227 ft | 334 kts | 66° |
| 2026-05-06 02:52 | -23.26403 | -44.23435 | 13828 ft | 333 kts | 66° |
| 2026-05-06 02:52 | -23.25423 | -44.21162 | 13396 ft | 331 kts | 66° |
| 2026-05-06 02:52 | -23.24451 | -44.18905 | 13002 ft | 328 kts | 66° |
| 2026-05-06 02:52 | -23.23485 | -44.16665 | 12615 ft | 326 kts | 66° |
| 2026-05-06 02:53 | -23.22538 | -44.14464 | 12239 ft | 323 kts | 65° |
| 2026-05-06 02:53 | -23.21581 | -44.12246 | 11725 ft | 327 kts | 65° |
| 2026-05-06 02:53 | -23.20607 | -44.09988 | 11319 ft | 331 kts | 65° |
| 2026-05-06 02:53 | -23.19634 | -44.07746 | 11152 ft | 329 kts | 65° |
| 2026-05-06 02:54 | -23.18611 | -44.05496 | 10934 ft | 332 kts | 64° |
| 2026-05-06 02:54 | -23.17588 | -44.03289 | 10767 ft | 322 kts | 64° |
| 2026-05-06 02:54 | -23.16596 | -44.01148 | 10597 ft | 312 kts | 64° |
| 2026-05-06 02:54 | -23.15639 | -43.99066 | 10442 ft | 303 kts | 65° |
| 2026-05-06 02:55 | -23.14750 | -43.97025 | 10285 ft | 295 kts | 66° |
| 2026-05-06 02:55 | -23.13900 | -43.95027 | 10156 ft | 286 kts | 66° |
| 2026-05-06 02:55 | -23.13079 | -43.93091 | 9997 ft | 279 kts | 65° |
| 2026-05-06 02:55 | -23.12273 | -43.91194 | 9836 ft | 274 kts | 65° |
| 2026-05-06 02:56 | -23.11476 | -43.89322 | 9683 ft | 272 kts | 65° |
| 2026-05-06 02:56 | -23.10680 | -43.87455 | 9545 ft | 273 kts | 65° |
| 2026-05-06 02:56 | -23.09880 | -43.85582 | 9397 ft | 274 kts | 65° |
| 2026-05-06 02:56 | -23.09076 | -43.83703 | 9252 ft | 275 kts | 65° |
| 2026-05-06 02:57 | -23.08269 | -43.81817 | 9107 ft | 276 kts | 65° |
| 2026-05-06 02:57 | -23.07458 | -43.79923 | 8957 ft | 276 kts | 65° |
| 2026-05-06 02:57 | -23.06645 | -43.78028 | 8808 ft | 277 kts | 65° |
| 2026-05-06 02:57 | -23.05833 | -43.76133 | 8660 ft | 277 kts | 66° |
| 2026-05-06 02:58 | -23.05295 | -43.74877 | 8558 ft | 277 kts | 66° |
| 2026-05-06 02:58 | -23.04479 | -43.72978 | 8422 ft | 277 kts | 66° |
| 2026-05-06 02:58 | -23.03666 | -43.71085 | 8262 ft | 275 kts | 66° |
| 2026-05-06 02:58 | -23.02585 | -43.68584 | 7976 ft | 273 kts | 65° |
| 2026-05-06 02:59 | -23.01781 | -43.66747 | 7748 ft | 270 kts | 66° |
| 2026-05-06 02:59 | -23.01247 | -43.65527 | 7576 ft | 269 kts | 66° |
| 2026-05-06 02:59 | -23.00438 | -43.63682 | 7331 ft | 266 kts | 65° |
| 2026-05-06 02:59 | -22.99646 | -43.61873 | 7085 ft | 265 kts | 66° |
| 2026-05-06 03:00 | -22.98864 | -43.60094 | 6845 ft | 263 kts | 66° |
| 2026-05-06 03:00 | -22.98070 | -43.58290 | 6675 ft | 261 kts | 65° |
| 2026-05-06 03:00 | -22.97288 | -43.56509 | 6523 ft | 263 kts | 65° |
| 2026-05-06 03:00 | -22.96496 | -43.54710 | 6371 ft | 266 kts | 66° |
| 2026-05-06 03:01 | -22.95697 | -43.52895 | 6181 ft | 267 kts | 65° |
| 2026-05-06 03:01 | -22.94901 | -43.51086 | 6019 ft | 266 kts | 65° |
| 2026-05-06 03:01 | -22.94124 | -43.49273 | 5733 ft | 270 kts | 66° |
| 2026-05-06 03:01 | -22.93335 | -43.47404 | 5433 ft | 269 kts | 66° |
| 2026-05-06 03:02 | -22.92557 | -43.45563 | 5152 ft | 268 kts | 66° |
| 2026-05-06 03:02 | -22.91792 | -43.43755 | 4863 ft | 267 kts | 66° |
| 2026-05-06 03:02 | -22.91014 | -43.41914 | 4616 ft | 264 kts | 66° |
| 2026-05-06 03:02 | -22.90251 | -43.40116 | 4371 ft | 260 kts | 66° |
| 2026-05-06 03:03 | -22.89502 | -43.38347 | 4146 ft | 256 kts | 66° |
| 2026-05-06 03:03 | -22.88769 | -43.36624 | 3925 ft | 250 kts | 66° |
| 2026-05-06 03:03 | -22.88270 | -43.34872 | 3681 ft | 239 kts | 89° |
| 2026-05-06 03:03 | -22.88338 | -43.33134 | 3594 ft | 221 kts | 92° |
| 2026-05-06 03:04 | -22.88398 | -43.31503 | 3370 ft | 215 kts | 92° |
| 2026-05-06 03:04 | -22.88451 | -43.29921 | 3155 ft | 208 kts | 92° |
| 2026-05-06 03:04 | -22.88502 | -43.28358 | 2981 ft | 204 kts | 92° |
| 2026-05-06 03:04 | -22.88553 | -43.26853 | 2820 ft | 194 kts | 92° |
| 2026-05-06 03:05 | -22.88852 | -43.25471 | 2613 ft | 188 kts | 113° |
| 2026-05-06 03:05 | -22.89367 | -43.24186 | 2313 ft | 181 kts | 111° |
| 2026-05-06 03:05 | -22.89831 | -43.22966 | 2104 ft | 167 kts | 111° |
| 2026-05-06 03:05 | -22.90252 | -43.21850 | 1901 ft | 152 kts | 111° |
| 2026-05-06 03:06 | -22.90724 | -43.20890 | 1867 ft | 143 kts | 123° |
| 2026-05-06 03:06 | -22.91406 | -43.20122 | 1806 ft | 140 kts | 140° |
| 2026-05-06 03:06 | -22.92253 | -43.19592 | 1665 ft | 144 kts | 157° |
| 2026-05-06 03:06 | -22.93221 | -43.19330 | 1579 ft | 146 kts | 168° |
| 2026-05-06 03:07 | -22.94136 | -43.18962 | 1444 ft | 138 kts | 138° |
| 2026-05-06 03:07 | -22.94626 | -43.18092 | 1116 ft | 135 kts | 99° |
| 2026-05-06 03:07 | -22.94509 | -43.17152 | 870 ft | 126 kts | 62° |
| 2026-05-06 03:07 | -22.93928 | -43.16444 | 526 ft | 129 kts | 36° |
| 2026-05-06 03:08 | -22.93082 | -43.16165 | 267 ft | 130 kts | 359° |
| 2026-05-06 03:08 | -22.92180 | -43.16210 | 152 ft | 128 kts | 356° |
| 2026-05-06 03:08 | -22.91300 | -43.16269 | 21 ft | 121 kts | 356° |
| 2026-05-06 03:08 | -22.90757 | -43.16302 | 24 ft | 24 kts | 356° |
| 2026-05-06 03:09 | -22.90601 | -43.16312 | 23 ft | 15 kts | 358° |
| 2026-05-06 03:09 | -22.90521 | -43.16320 | 23 ft | 7 kts | 339° |
| 2026-05-06 03:09 | -22.90491 | -43.16363 | 23 ft | 8 kts | 279° |
| 2026-05-06 03:09 | -22.90496 | -43.16434 | 22 ft | 11 kts | 267° |
| 2026-05-06 03:10 | -22.90498 | -43.16496 | 21 ft | 6 kts | 268° |
| 2026-05-06 03:10 | -22.90499 | -43.16539 | 21 ft | 6 kts | 266° |
| 2026-05-06 03:10 | -22.90531 | -43.16557 | 21 ft | 6 kts | 178° |
| 2026-05-06 03:10 | -22.90573 | -43.16554 | 22 ft | 6 kts | 175° |
| 2026-05-06 03:11 | -22.90614 | -43.16550 | 21 ft | 6 kts | 175° |
| 2026-05-06 03:11 | -22.90655 | -43.16547 | 23 ft | 6 kts | 177° |
| 2026-05-06 03:11 | -22.90705 | -43.16545 | 21 ft | 8 kts | 177° |
| 2026-05-06 03:11 | -22.90760 | -43.16542 | 21 ft | 8 kts | 177° |
| 2026-05-06 03:12 | -22.90813 | -43.16545 | 21 ft | 8 kts | 193° |
| 2026-05-06 03:12 | -22.90864 | -43.16550 | 21 ft | 7 kts | 175° |
| 2026-05-06 03:12 | -22.90914 | -43.16545 | 21 ft | 7 kts | 175° |
| 2026-05-06 03:12 | -22.90963 | -43.16541 | 24 ft | 7 kts | 175° |
| 2026-05-06 03:13 | -22.91012 | -43.16537 | 23 ft | 8 kts | 177° |
| 2026-05-06 03:13 | -22.91078 | -43.16531 | 21 ft | 11 kts | 168° |
| 2026-05-06 03:13 | -22.91152 | -43.16517 | 21 ft | 11 kts | 176° |
| 2026-05-06 03:13 | -22.91170 | -43.16516 | 21 ft | 1 kts | 176° |
| 2026-05-06 03:14 | -22.91179 | -43.16515 | 21 ft | 1 kts | 176° |
| 2026-05-06 03:14 | -22.91187 | -43.16515 | 23 ft | 1 kts | 176° |
| 2026-05-06 03:14 | -22.91199 | -43.16518 | 21 ft | 2 kts | 206° |
| 2026-05-06 03:14 | -22.91205 | -43.16536 | 21 ft | 3 kts | 255° |
| 2026-05-06 03:15 | -22.91208 | -43.16559 | 21 ft | 3 kts | 266° |
| 2026-05-06 03:15 | -22.91208 | -43.16567 | 21 ft | 1 kts | 266° |
| 2026-05-06 03:15 | -22.91209 | -43.16574 | 21 ft | 1 kts | 266° |
| 2026-05-06 03:15 | -22.91209 | -43.16581 | 21 ft | 1 kts | 266° |
| 2026-05-06 03:16 | -22.91209 | -43.16582 | 21 ft | 0 kts | 266° |